sensor_id;sensor_type;location;lat;lon;timestamp;P1;durP1;ratioP1;P2;durP2;ratioP2
35530;SDS011;21637;53.352;-6.356;2023-12-28T00:00:21;13.68;;;2.40;;
35530;SDS011;21637;53.352;-6.356;2023-12-28T00:02:47;12.57;;;2.03;;
35530;SDS011;21637;53.352;-6.356;2023-12-28T00:05:13;7.15;;;1.88;;
35530;SDS011;21637;53.352;-6.356;2023-12-28T00:07:38;9.38;;;2.15;;
35530;SDS011;21637;53.352;-6.356;2023-12-28T00:10:04;10.70;;;2.03;;
35530;SDS011;21637;53.352;-6.356;2023-12-28T00:12:30;6.35;;;1.40;;
35530;SDS011;21637;53.352;-6.356;2023-12-28T00:14:56;7.80;;;2.50;;
35530;SDS011;21637;53.352;-6.356;2023-12-28T00:17:21;7.55;;;1.52;;
35530;SDS011;21637;53.352;-6.356;2023-12-28T00:19:47;7.93;;;1.35;;
35530;SDS011;21637;53.352;-6.356;2023-12-28T00:22:13;8.48;;;1.77;;
35530;SDS011;21637;53.352;-6.356;2023-12-28T00:24:39;6.43;;;1.63;;
35530;SDS011;21637;53.352;-6.356;2023-12-28T00:27:04;5.88;;;1.50;;
35530;SDS011;21637;53.352;-6.356;2023-12-28T00:29:30;6.07;;;1.25;;
35530;SDS011;21637;53.352;-6.356;2023-12-28T00:31:57;7.32;;;1.08;;
35530;SDS011;21637;53.352;-6.356;2023-12-28T00:34:24;5.32;;;1.00;;
35530;SDS011;21637;53.352;-6.356;2023-12-28T00:36:50;5.00;;;1.23;;
35530;SDS011;21637;53.352;-6.356;2023-12-28T00:39:16;2.20;;;0.77;;
35530;SDS011;21637;53.352;-6.356;2023-12-28T00:41:41;4.63;;;0.93;;
35530;SDS011;21637;53.352;-6.356;2023-12-28T00:44:07;4.47;;;0.85;;
35530;SDS011;21637;53.352;-6.356;2023-12-28T00:46:35;3.78;;;1.02;;
35530;SDS011;21637;53.352;-6.356;2023-12-28T00:49:00;3.03;;;1.00;;
35530;SDS011;21637;53.352;-6.356;2023-12-28T00:51:26;3.63;;;0.80;;
35530;SDS011;21637;53.352;-6.356;2023-12-28T00:53:52;7.20;;;1.13;;
35530;SDS011;21637;53.352;-6.356;2023-12-28T00:56:17;2.28;;;0.90;;
35530;SDS011;21637;53.352;-6.356;2023-12-28T00:58:45;3.25;;;0.65;;
35530;SDS011;21637;53.352;-6.356;2023-12-28T01:01:11;9.73;;;1.95;;
35530;SDS011;21637;53.352;-6.356;2023-12-28T01:03:37;8.50;;;1.33;;
35530;SDS011;21637;53.352;-6.356;2023-12-28T01:06:07;4.90;;;1.08;;
35530;SDS011;21637;53.352;-6.356;2023-12-28T01:08:33;4.43;;;1.02;;
35530;SDS011;21637;53.352;-6.356;2023-12-28T01:10:59;12.20;;;1.85;;
35530;SDS011;21637;53.352;-6.356;2023-12-28T01:13:27;5.70;;;1.58;;
35530;SDS011;21637;53.352;-6.356;2023-12-28T01:15:53;5.50;;;1.10;;
35530;SDS011;21637;53.352;-6.356;2023-12-28T01:18:20;12.10;;;1.58;;
35530;SDS011;21637;53.352;-6.356;2023-12-28T01:20:46;6.38;;;1.35;;
35530;SDS011;21637;53.352;-6.356;2023-12-28T01:23:13;4.40;;;1.05;;
35530;SDS011;21637;53.352;-6.356;2023-12-28T01:25:39;11.23;;;1.40;;
35530;SDS011;21637;53.352;-6.356;2023-12-28T01:28:05;11.65;;;1.60;;
35530;SDS011;21637;53.352;-6.356;2023-12-28T01:30:31;4.60;;;1.10;;
35530;SDS011;21637;53.352;-6.356;2023-12-28T01:32:59;6.03;;;1.55;;
35530;SDS011;21637;53.352;-6.356;2023-12-28T01:35:24;10.85;;;1.80;;
35530;SDS011;21637;53.352;-6.356;2023-12-28T01:37:50;8.07;;;1.30;;
35530;SDS011;21637;53.352;-6.356;2023-12-28T01:40:16;12.45;;;1.92;;
35530;SDS011;21637;53.352;-6.356;2023-12-28T01:42:42;13.32;;;1.95;;
35530;SDS011;21637;53.352;-6.356;2023-12-28T01:45:07;10.32;;;2.13;;
35530;SDS011;21637;53.352;-6.356;2023-12-28T01:47:33;7.20;;;1.50;;
35530;SDS011;21637;53.352;-6.356;2023-12-28T01:49:59;8.75;;;1.52;;
35530;SDS011;21637;53.352;-6.356;2023-12-28T01:52:26;9.25;;;1.90;;
35530;SDS011;21637;53.352;-6.356;2023-12-28T01:54:53;7.70;;;1.80;;
35530;SDS011;21637;53.352;-6.356;2023-12-28T01:57:19;10.02;;;1.80;;
35530;SDS011;21637;53.352;-6.356;2023-12-28T01:59:45;6.93;;;1.80;;
35530;SDS011;21637;53.352;-6.356;2023-12-28T02:02:11;7.72;;;1.55;;
35530;SDS011;21637;53.352;-6.356;2023-12-28T02:04:37;11.20;;;1.98;;
35530;SDS011;21637;53.352;-6.356;2023-12-28T02:07:03;10.75;;;2.08;;
35530;SDS011;21637;53.352;-6.356;2023-12-28T02:09:29;9.75;;;1.90;;
35530;SDS011;21637;53.352;-6.356;2023-12-28T02:11:54;8.52;;;1.67;;
35530;SDS011;21637;53.352;-6.356;2023-12-28T02:14:21;14.70;;;2.35;;
35530;SDS011;21637;53.352;-6.356;2023-12-28T02:16:54;10.95;;;1.45;;
35530;SDS011;21637;53.352;-6.356;2023-12-28T02:22:15;15.68;;;2.05;;
35530;SDS011;21637;53.352;-6.356;2023-12-28T02:27:25;5.75;;;1.83;;
35530;SDS011;21637;53.352;-6.356;2023-12-28T02:29:51;8.38;;;1.50;;
35530;SDS011;21637;53.352;-6.356;2023-12-28T02:32:19;8.05;;;1.80;;
35530;SDS011;21637;53.352;-6.356;2023-12-28T02:34:53;7.38;;;1.67;;
35530;SDS011;21637;53.352;-6.356;2023-12-28T02:37:24;9.52;;;1.40;;
35530;SDS011;21637;53.352;-6.356;2023-12-28T02:39:51;12.43;;;1.98;;
35530;SDS011;21637;53.352;-6.356;2023-12-28T02:42:19;7.80;;;1.60;;
35530;SDS011;21637;53.352;-6.356;2023-12-28T02:44:45;13.00;;;2.25;;
35530;SDS011;21637;53.352;-6.356;2023-12-28T02:47:10;9.10;;;1.45;;
35530;SDS011;21637;53.352;-6.356;2023-12-28T02:49:36;15.00;;;1.80;;
35530;SDS011;21637;53.352;-6.356;2023-12-28T02:52:02;7.68;;;1.73;;
35530;SDS011;21637;53.352;-6.356;2023-12-28T02:54:27;12.77;;;1.55;;
35530;SDS011;21637;53.352;-6.356;2023-12-28T02:56:53;10.85;;;1.75;;
35530;SDS011;21637;53.352;-6.356;2023-12-28T02:59:19;12.27;;;2.03;;
35530;SDS011;21637;53.352;-6.356;2023-12-28T03:01:45;12.93;;;2.10;;
35530;SDS011;21637;53.352;-6.356;2023-12-28T03:04:10;13.68;;;2.00;;
35530;SDS011;21637;53.352;-6.356;2023-12-28T03:06:36;12.90;;;2.03;;
35530;SDS011;21637;53.352;-6.356;2023-12-28T03:09:04;11.32;;;1.77;;
35530;SDS011;21637;53.352;-6.356;2023-12-28T03:11:30;10.77;;;1.58;;
35530;SDS011;21637;53.352;-6.356;2023-12-28T03:13:56;10.05;;;1.80;;
35530;SDS011;21637;53.352;-6.356;2023-12-28T03:16:21;14.90;;;2.53;;
35530;SDS011;21637;53.352;-6.356;2023-12-28T03:18:47;16.00;;;2.22;;
35530;SDS011;21637;53.352;-6.356;2023-12-28T03:21:13;9.65;;;2.28;;
35530;SDS011;21637;53.352;-6.356;2023-12-28T03:23:38;13.13;;;2.45;;
35530;SDS011;21637;53.352;-6.356;2023-12-28T03:26:04;13.70;;;2.22;;
35530;SDS011;21637;53.352;-6.356;2023-12-28T03:28:30;14.57;;;2.25;;
35530;SDS011;21637;53.352;-6.356;2023-12-28T03:30:55;11.20;;;1.98;;
35530;SDS011;21637;53.352;-6.356;2023-12-28T03:33:22;13.30;;;2.17;;
35530;SDS011;21637;53.352;-6.356;2023-12-28T03:35:47;11.82;;;2.63;;
35530;SDS011;21637;53.352;-6.356;2023-12-28T03:38:13;11.50;;;2.38;;
35530;SDS011;21637;53.352;-6.356;2023-12-28T03:40:39;15.40;;;3.17;;
35530;SDS011;21637;53.352;-6.356;2023-12-28T03:43:04;17.25;;;2.47;;
35530;SDS011;21637;53.352;-6.356;2023-12-28T03:45:30;10.98;;;1.98;;
35530;SDS011;21637;53.352;-6.356;2023-12-28T03:47:56;7.80;;;2.00;;
35530;SDS011;21637;53.352;-6.356;2023-12-28T03:50:21;16.48;;;2.60;;
35530;SDS011;21637;53.352;-6.356;2023-12-28T03:52:47;9.98;;;2.08;;
35530;SDS011;21637;53.352;-6.356;2023-12-28T03:55:13;9.45;;;2.05;;
35530;SDS011;21637;53.352;-6.356;2023-12-28T03:57:38;10.88;;;2.05;;
35530;SDS011;21637;53.352;-6.356;2023-12-28T04:00:05;10.07;;;1.88;;
35530;SDS011;21637;53.352;-6.356;2023-12-28T04:02:32;13.38;;;2.35;;
35530;SDS011;21637;53.352;-6.356;2023-12-28T04:04:57;12.60;;;2.25;;
35530;SDS011;21637;53.352;-6.356;2023-12-28T04:07:24;5.32;;;1.88;;
35530;SDS011;21637;53.352;-6.356;2023-12-28T04:09:49;8.20;;;2.00;;
35530;SDS011;21637;53.352;-6.356;2023-12-28T04:12:15;9.75;;;1.95;;
35530;SDS011;21637;53.352;-6.356;2023-12-28T04:14:41;9.13;;;2.00;;
35530;SDS011;21637;53.352;-6.356;2023-12-28T04:17:06;11.30;;;2.13;;
35530;SDS011;21637;53.352;-6.356;2023-12-28T04:19:32;11.88;;;1.80;;
35530;SDS011;21637;53.352;-6.356;2023-12-28T04:21:58;12.65;;;1.98;;
35530;SDS011;21637;53.352;-6.356;2023-12-28T04:24:23;9.65;;;2.63;;
35530;SDS011;21637;53.352;-6.356;2023-12-28T04:26:49;10.88;;;2.22;;
35530;SDS011;21637;53.352;-6.356;2023-12-28T04:29:15;11.43;;;1.75;;
35530;SDS011;21637;53.352;-6.356;2023-12-28T04:31:40;9.25;;;1.65;;
35530;SDS011;21637;53.352;-6.356;2023-12-28T04:34:10;11.55;;;2.40;;
35530;SDS011;21637;53.352;-6.356;2023-12-28T04:36:40;11.85;;;2.22;;
35530;SDS011;21637;53.352;-6.356;2023-12-28T04:39:07;16.65;;;2.42;;
35530;SDS011;21637;53.352;-6.356;2023-12-28T04:41:33;12.35;;;2.33;;
35530;SDS011;21637;53.352;-6.356;2023-12-28T04:43:58;14.48;;;2.63;;
35530;SDS011;21637;53.352;-6.356;2023-12-28T04:46:24;13.90;;;2.42;;
35530;SDS011;21637;53.352;-6.356;2023-12-28T04:48:50;16.73;;;3.45;;
35530;SDS011;21637;53.352;-6.356;2023-12-28T04:51:15;17.70;;;2.50;;
35530;SDS011;21637;53.352;-6.356;2023-12-28T04:53:41;15.15;;;3.15;;
35530;SDS011;21637;53.352;-6.356;2023-12-28T04:56:07;21.40;;;3.47;;
35530;SDS011;21637;53.352;-6.356;2023-12-28T04:58:32;19.90;;;3.00;;
35530;SDS011;21637;53.352;-6.356;2023-12-28T05:00:58;19.42;;;3.05;;
35530;SDS011;21637;53.352;-6.356;2023-12-28T05:03:26;18.98;;;4.22;;
35530;SDS011;21637;53.352;-6.356;2023-12-28T05:05:51;16.77;;;3.13;;
35530;SDS011;21637;53.352;-6.356;2023-12-28T05:08:17;29.70;;;3.97;;
35530;SDS011;21637;53.352;-6.356;2023-12-28T05:10:43;18.00;;;4.15;;
35530;SDS011;21637;53.352;-6.356;2023-12-28T05:13:08;22.42;;;3.60;;
35530;SDS011;21637;53.352;-6.356;2023-12-28T05:15:34;18.98;;;3.15;;
35530;SDS011;21637;53.352;-6.356;2023-12-28T05:18:00;22.23;;;3.58;;
35530;SDS011;21637;53.352;-6.356;2023-12-28T05:20:25;20.10;;;3.67;;
35530;SDS011;21637;53.352;-6.356;2023-12-28T05:22:51;21.52;;;3.78;;
35530;SDS011;21637;53.352;-6.356;2023-12-28T05:25:17;20.40;;;3.30;;
35530;SDS011;21637;53.352;-6.356;2023-12-28T05:27:42;21.73;;;2.97;;
35530;SDS011;21637;53.352;-6.356;2023-12-28T05:30:08;20.75;;;2.92;;
35530;SDS011;21637;53.352;-6.356;2023-12-28T05:32:35;16.85;;;2.78;;
35530;SDS011;21637;53.352;-6.356;2023-12-28T05:35:00;22.75;;;3.35;;
35530;SDS011;21637;53.352;-6.356;2023-12-28T05:37:26;19.85;;;3.90;;
35530;SDS011;21637;53.352;-6.356;2023-12-28T05:39:52;19.85;;;3.33;;
35530;SDS011;21637;53.352;-6.356;2023-12-28T05:42:18;19.00;;;3.25;;
35530;SDS011;21637;53.352;-6.356;2023-12-28T05:44:44;22.33;;;3.50;;
35530;SDS011;21637;53.352;-6.356;2023-12-28T05:47:09;17.52;;;3.17;;
35530;SDS011;21637;53.352;-6.356;2023-12-28T05:49:36;17.23;;;2.85;;
35530;SDS011;21637;53.352;-6.356;2023-12-28T05:52:02;15.80;;;2.50;;
35530;SDS011;21637;53.352;-6.356;2023-12-28T05:54:28;15.82;;;3.03;;
35530;SDS011;21637;53.352;-6.356;2023-12-28T05:56:54;18.38;;;3.47;;
35530;SDS011;21637;53.352;-6.356;2023-12-28T05:59:20;14.65;;;2.20;;
35530;SDS011;21637;53.352;-6.356;2023-12-28T06:01:46;16.48;;;2.70;;
35530;SDS011;21637;53.352;-6.356;2023-12-28T06:04:12;12.70;;;2.75;;
35530;SDS011;21637;53.352;-6.356;2023-12-28T06:06:38;12.52;;;2.70;;
35530;SDS011;21637;53.352;-6.356;2023-12-28T06:09:04;13.35;;;2.47;;
35530;SDS011;21637;53.352;-6.356;2023-12-28T06:11:30;14.27;;;2.42;;
35530;SDS011;21637;53.352;-6.356;2023-12-28T06:13:55;13.50;;;2.10;;
35530;SDS011;21637;53.352;-6.356;2023-12-28T06:16:22;15.10;;;2.80;;
35530;SDS011;21637;53.352;-6.356;2023-12-28T06:18:48;17.30;;;2.55;;
35530;SDS011;21637;53.352;-6.356;2023-12-28T06:21:13;8.40;;;1.80;;
35530;SDS011;21637;53.352;-6.356;2023-12-28T06:23:39;22.30;;;3.08;;
35530;SDS011;21637;53.352;-6.356;2023-12-28T06:26:05;12.20;;;1.65;;
35530;SDS011;21637;53.352;-6.356;2023-12-28T06:28:31;12.15;;;2.38;;
35530;SDS011;21637;53.352;-6.356;2023-12-28T06:30:58;17.05;;;2.78;;
35530;SDS011;21637;53.352;-6.356;2023-12-28T06:33:26;9.48;;;2.10;;
35530;SDS011;21637;53.352;-6.356;2023-12-28T06:35:53;12.13;;;2.88;;
35530;SDS011;21637;53.352;-6.356;2023-12-28T06:38:18;10.15;;;2.05;;
35530;SDS011;21637;53.352;-6.356;2023-12-28T06:40:44;13.57;;;2.42;;
35530;SDS011;21637;53.352;-6.356;2023-12-28T06:43:10;15.98;;;2.78;;
35530;SDS011;21637;53.352;-6.356;2023-12-28T06:45:35;11.13;;;2.28;;
35530;SDS011;21637;53.352;-6.356;2023-12-28T06:48:01;7.80;;;1.88;;
35530;SDS011;21637;53.352;-6.356;2023-12-28T06:50:27;9.50;;;2.03;;
35530;SDS011;21637;53.352;-6.356;2023-12-28T06:52:53;10.73;;;2.13;;
35530;SDS011;21637;53.352;-6.356;2023-12-28T06:55:18;7.97;;;1.70;;
35530;SDS011;21637;53.352;-6.356;2023-12-28T06:57:44;9.93;;;2.10;;
35530;SDS011;21637;53.352;-6.356;2023-12-28T07:00:10;11.40;;;2.42;;
35530;SDS011;21637;53.352;-6.356;2023-12-28T07:02:36;16.00;;;2.20;;
35530;SDS011;21637;53.352;-6.356;2023-12-28T07:05:01;10.00;;;2.13;;
35530;SDS011;21637;53.352;-6.356;2023-12-28T07:07:29;7.57;;;2.20;;
35530;SDS011;21637;53.352;-6.356;2023-12-28T07:09:54;8.18;;;1.88;;
35530;SDS011;21637;53.352;-6.356;2023-12-28T07:12:20;7.60;;;2.08;;
35530;SDS011;21637;53.352;-6.356;2023-12-28T07:14:46;7.45;;;1.50;;
35530;SDS011;21637;53.352;-6.356;2023-12-28T07:17:12;4.63;;;1.20;;
35530;SDS011;21637;53.352;-6.356;2023-12-28T07:19:42;7.57;;;1.83;;
35530;SDS011;21637;53.352;-6.356;2023-12-28T07:22:08;6.03;;;1.15;;
35530;SDS011;21637;53.352;-6.356;2023-12-28T07:24:34;5.03;;;1.25;;
35530;SDS011;21637;53.352;-6.356;2023-12-28T07:26:59;9.20;;;1.52;;
35530;SDS011;21637;53.352;-6.356;2023-12-28T07:29:25;9.23;;;1.70;;
35530;SDS011;21637;53.352;-6.356;2023-12-28T07:31:51;8.82;;;1.83;;
35530;SDS011;21637;53.352;-6.356;2023-12-28T07:34:16;7.85;;;1.45;;
35530;SDS011;21637;53.352;-6.356;2023-12-28T07:36:42;10.20;;;2.42;;
35530;SDS011;21637;53.352;-6.356;2023-12-28T07:39:08;7.55;;;1.60;;
35530;SDS011;21637;53.352;-6.356;2023-12-28T07:41:35;7.30;;;1.33;;
35530;SDS011;21637;53.352;-6.356;2023-12-28T07:44:01;12.70;;;2.13;;
35530;SDS011;21637;53.352;-6.356;2023-12-28T07:46:27;10.70;;;1.70;;
35530;SDS011;21637;53.352;-6.356;2023-12-28T07:48:53;7.05;;;1.45;;
35530;SDS011;21637;53.352;-6.356;2023-12-28T07:51:18;6.10;;;1.48;;
35530;SDS011;21637;53.352;-6.356;2023-12-28T07:53:44;9.07;;;1.65;;
35530;SDS011;21637;53.352;-6.356;2023-12-28T07:56:10;8.43;;;1.85;;
35530;SDS011;21637;53.352;-6.356;2023-12-28T07:58:36;9.98;;;2.15;;
35530;SDS011;21637;53.352;-6.356;2023-12-28T08:01:08;6.82;;;1.30;;
35530;SDS011;21637;53.352;-6.356;2023-12-28T08:03:35;11.30;;;1.85;;
35530;SDS011;21637;53.352;-6.356;2023-12-28T08:06:00;8.82;;;1.85;;
35530;SDS011;21637;53.352;-6.356;2023-12-28T08:08:26;9.80;;;1.70;;
35530;SDS011;21637;53.352;-6.356;2023-12-28T08:10:52;8.57;;;1.73;;
35530;SDS011;21637;53.352;-6.356;2023-12-28T08:13:17;9.63;;;1.95;;
35530;SDS011;21637;53.352;-6.356;2023-12-28T08:15:43;10.73;;;2.05;;
35530;SDS011;21637;53.352;-6.356;2023-12-28T08:18:11;6.35;;;1.75;;
35530;SDS011;21637;53.352;-6.356;2023-12-28T08:20:37;8.88;;;1.73;;
35530;SDS011;21637;53.352;-6.356;2023-12-28T08:23:03;12.20;;;2.30;;
35530;SDS011;21637;53.352;-6.356;2023-12-28T08:25:28;9.50;;;2.30;;
35530;SDS011;21637;53.352;-6.356;2023-12-28T08:27:54;11.30;;;2.13;;
35530;SDS011;21637;53.352;-6.356;2023-12-28T08:30:20;11.75;;;1.98;;
35530;SDS011;21637;53.352;-6.356;2023-12-28T08:32:46;16.48;;;2.33;;
35530;SDS011;21637;53.352;-6.356;2023-12-28T08:35:12;13.70;;;2.08;;
35530;SDS011;21637;53.352;-6.356;2023-12-28T08:37:38;14.82;;;3.08;;
35530;SDS011;21637;53.352;-6.356;2023-12-28T08:40:04;13.63;;;2.75;;
35530;SDS011;21637;53.352;-6.356;2023-12-28T08:42:30;11.32;;;1.90;;
35530;SDS011;21637;53.352;-6.356;2023-12-28T08:44:56;11.45;;;2.70;;
35530;SDS011;21637;53.352;-6.356;2023-12-28T08:47:22;8.40;;;2.13;;
35530;SDS011;21637;53.352;-6.356;2023-12-28T08:49:47;15.10;;;3.15;;
35530;SDS011;21637;53.352;-6.356;2023-12-28T08:52:13;5.78;;;1.60;;
35530;SDS011;21637;53.352;-6.356;2023-12-28T08:54:39;14.10;;;2.40;;
35530;SDS011;21637;53.352;-6.356;2023-12-28T08:57:06;12.57;;;1.90;;
35530;SDS011;21637;53.352;-6.356;2023-12-28T08:59:35;12.13;;;2.00;;
35530;SDS011;21637;53.352;-6.356;2023-12-28T09:02:01;9.45;;;2.03;;
35530;SDS011;21637;53.352;-6.356;2023-12-28T09:04:27;12.07;;;2.70;;
35530;SDS011;21637;53.352;-6.356;2023-12-28T09:06:53;16.40;;;2.47;;
35530;SDS011;21637;53.352;-6.356;2023-12-28T09:09:19;6.80;;;1.90;;
35530;SDS011;21637;53.352;-6.356;2023-12-28T09:11:44;10.13;;;2.60;;
35530;SDS011;21637;53.352;-6.356;2023-12-28T09:14:10;11.23;;;2.33;;
35530;SDS011;21637;53.352;-6.356;2023-12-28T09:16:36;12.45;;;2.15;;
35530;SDS011;21637;53.352;-6.356;2023-12-28T09:19:01;10.57;;;2.38;;
35530;SDS011;21637;53.352;-6.356;2023-12-28T09:21:27;16.00;;;2.70;;
35530;SDS011;21637;53.352;-6.356;2023-12-28T09:23:53;9.00;;;2.33;;
35530;SDS011;21637;53.352;-6.356;2023-12-28T09:26:18;10.55;;;2.50;;
35530;SDS011;21637;53.352;-6.356;2023-12-28T09:28:44;16.25;;;2.50;;
35530;SDS011;21637;53.352;-6.356;2023-12-28T09:31:10;16.35;;;2.80;;
35530;SDS011;21637;53.352;-6.356;2023-12-28T09:33:36;12.40;;;2.47;;
35530;SDS011;21637;53.352;-6.356;2023-12-28T09:36:05;12.52;;;2.20;;
35530;SDS011;21637;53.352;-6.356;2023-12-28T09:38:33;15.05;;;2.75;;
35530;SDS011;21637;53.352;-6.356;2023-12-28T09:40:58;11.25;;;2.10;;
35530;SDS011;21637;53.352;-6.356;2023-12-28T09:43:49;11.82;;;2.30;;
35530;SDS011;21637;53.352;-6.356;2023-12-28T09:46:19;8.90;;;2.30;;
35530;SDS011;21637;53.352;-6.356;2023-12-28T09:48:45;13.55;;;2.70;;
35530;SDS011;21637;53.352;-6.356;2023-12-28T09:51:12;13.38;;;2.10;;
35530;SDS011;21637;53.352;-6.356;2023-12-28T09:53:38;11.65;;;2.63;;
35530;SDS011;21637;53.352;-6.356;2023-12-28T09:56:04;5.90;;;1.50;;
35530;SDS011;21637;53.352;-6.356;2023-12-28T09:58:30;8.70;;;1.90;;
35530;SDS011;21637;53.352;-6.356;2023-12-28T10:01:00;7.65;;;1.23;;
35530;SDS011;21637;53.352;-6.356;2023-12-28T10:03:27;7.47;;;1.35;;
35530;SDS011;21637;53.352;-6.356;2023-12-28T10:05:52;3.83;;;1.00;;
35530;SDS011;21637;53.352;-6.356;2023-12-28T10:08:18;3.63;;;0.80;;
35530;SDS011;21637;53.352;-6.356;2023-12-28T10:10:44;3.15;;;0.90;;
35530;SDS011;21637;53.352;-6.356;2023-12-28T10:13:19;0.75;;;0.50;;
35530;SDS011;21637;53.352;-6.356;2023-12-28T10:15:47;5.60;;;1.20;;
35530;SDS011;21637;53.352;-6.356;2023-12-28T10:18:14;4.32;;;1.33;;
35530;SDS011;21637;53.352;-6.356;2023-12-28T10:20:47;2.42;;;0.65;;
35530;SDS011;21637;53.352;-6.356;2023-12-28T10:23:17;3.92;;;1.10;;
35530;SDS011;21637;53.352;-6.356;2023-12-28T10:25:43;4.60;;;0.80;;
35530;SDS011;21637;53.352;-6.356;2023-12-28T10:28:11;4.10;;;0.85;;
35530;SDS011;21637;53.352;-6.356;2023-12-28T10:30:37;4.03;;;1.25;;
35530;SDS011;21637;53.352;-6.356;2023-12-28T10:33:05;4.00;;;0.90;;
35530;SDS011;21637;53.352;-6.356;2023-12-28T10:35:31;2.92;;;1.08;;
35530;SDS011;21637;53.352;-6.356;2023-12-28T10:37:58;3.92;;;0.73;;
35530;SDS011;21637;53.352;-6.356;2023-12-28T10:40:25;5.10;;;1.00;;
35530;SDS011;21637;53.352;-6.356;2023-12-28T10:42:57;3.45;;;1.00;;
35530;SDS011;21637;53.352;-6.356;2023-12-28T10:45:28;6.10;;;0.90;;
35530;SDS011;21637;53.352;-6.356;2023-12-28T10:50:23;6.60;;;0.98;;
35530;SDS011;21637;53.352;-6.356;2023-12-28T10:52:54;5.45;;;1.00;;
35530;SDS011;21637;53.352;-6.356;2023-12-28T10:55:30;7.40;;;1.27;;
35530;SDS011;21637;53.352;-6.356;2023-12-28T11:00:38;5.82;;;1.17;;
35530;SDS011;21637;53.352;-6.356;2023-12-28T11:03:27;3.83;;;0.85;;
35530;SDS011;21637;53.352;-6.356;2023-12-28T11:05:56;7.93;;;1.48;;
35530;SDS011;21637;53.352;-6.356;2023-12-28T11:08:22;7.03;;;1.20;;
35530;SDS011;21637;53.352;-6.356;2023-12-28T11:10:50;7.85;;;1.10;;
35530;SDS011;21637;53.352;-6.356;2023-12-28T11:13:17;3.70;;;0.98;;
35530;SDS011;21637;53.352;-6.356;2023-12-28T11:15:46;7.85;;;1.27;;
35530;SDS011;21637;53.352;-6.356;2023-12-28T11:18:14;3.15;;;1.00;;
35530;SDS011;21637;53.352;-6.356;2023-12-28T11:20:41;5.03;;;0.93;;
35530;SDS011;21637;53.352;-6.356;2023-12-28T11:23:08;2.95;;;0.98;;
35530;SDS011;21637;53.352;-6.356;2023-12-28T11:25:35;2.90;;;1.02;;
35530;SDS011;21637;53.352;-6.356;2023-12-28T11:28:08;3.38;;;0.90;;
35530;SDS011;21637;53.352;-6.356;2023-12-28T11:30:35;5.35;;;1.23;;
35530;SDS011;21637;53.352;-6.356;2023-12-28T11:33:01;6.47;;;1.30;;
35530;SDS011;21637;53.352;-6.356;2023-12-28T11:35:34;7.63;;;1.25;;
35530;SDS011;21637;53.352;-6.356;2023-12-28T11:38:02;8.75;;;1.70;;
35530;SDS011;21637;53.352;-6.356;2023-12-28T11:40:31;6.78;;;1.55;;
35530;SDS011;21637;53.352;-6.356;2023-12-28T11:43:04;9.25;;;1.55;;
35530;SDS011;21637;53.352;-6.356;2023-12-28T11:45:50;4.38;;;1.30;;
35530;SDS011;21637;53.352;-6.356;2023-12-28T11:48:25;5.22;;;1.30;;
35530;SDS011;21637;53.352;-6.356;2023-12-28T11:50:56;7.50;;;1.40;;
35530;SDS011;21637;53.352;-6.356;2023-12-28T11:53:23;8.35;;;1.92;;
35530;SDS011;21637;53.352;-6.356;2023-12-28T11:55:50;8.43;;;1.92;;
35530;SDS011;21637;53.352;-6.356;2023-12-28T11:58:19;5.72;;;1.30;;
35530;SDS011;21637;53.352;-6.356;2023-12-28T12:00:47;7.57;;;1.35;;
35530;SDS011;21637;53.352;-6.356;2023-12-28T12:03:13;9.65;;;1.85;;
35530;SDS011;21637;53.352;-6.356;2023-12-28T12:05:39;7.53;;;2.30;;
35530;SDS011;21637;53.352;-6.356;2023-12-28T12:08:05;11.00;;;1.75;;
35530;SDS011;21637;53.352;-6.356;2023-12-28T12:10:34;9.63;;;2.17;;
35530;SDS011;21637;53.352;-6.356;2023-12-28T12:13:00;9.45;;;3.03;;
35530;SDS011;21637;53.352;-6.356;2023-12-28T12:15:27;8.30;;;2.08;;
35530;SDS011;21637;53.352;-6.356;2023-12-28T12:17:54;13.85;;;2.30;;
35530;SDS011;21637;53.352;-6.356;2023-12-28T12:20:20;11.65;;;1.70;;
35530;SDS011;21637;53.352;-6.356;2023-12-28T12:22:46;10.02;;;1.98;;
35530;SDS011;21637;53.352;-6.356;2023-12-28T12:25:12;7.72;;;2.17;;
35530;SDS011;21637;53.352;-6.356;2023-12-28T12:27:38;10.88;;;2.13;;
35530;SDS011;21637;53.352;-6.356;2023-12-28T12:30:04;11.63;;;1.80;;
35530;SDS011;21637;53.352;-6.356;2023-12-28T12:32:30;11.32;;;2.25;;
35530;SDS011;21637;53.352;-6.356;2023-12-28T12:34:57;17.35;;;3.10;;
35530;SDS011;21637;53.352;-6.356;2023-12-28T12:37:23;19.67;;;3.20;;
35530;SDS011;21637;53.352;-6.356;2023-12-28T12:39:49;14.75;;;2.85;;
35530;SDS011;21637;53.352;-6.356;2023-12-28T12:42:15;10.07;;;2.40;;
35530;SDS011;21637;53.352;-6.356;2023-12-28T12:44:44;14.55;;;2.47;;
35530;SDS011;21637;53.352;-6.356;2023-12-28T12:47:10;10.18;;;2.00;;
35530;SDS011;21637;53.352;-6.356;2023-12-28T12:49:37;10.60;;;2.63;;
35530;SDS011;21637;53.352;-6.356;2023-12-28T12:52:03;10.30;;;2.17;;
35530;SDS011;21637;53.352;-6.356;2023-12-28T12:54:29;8.07;;;1.92;;
35530;SDS011;21637;53.352;-6.356;2023-12-28T12:56:54;11.57;;;2.67;;
35530;SDS011;21637;53.352;-6.356;2023-12-28T12:59:22;9.95;;;2.05;;
35530;SDS011;21637;53.352;-6.356;2023-12-28T13:01:47;14.88;;;3.13;;
35530;SDS011;21637;53.352;-6.356;2023-12-28T13:04:13;11.27;;;2.92;;
35530;SDS011;21637;53.352;-6.356;2023-12-28T13:06:41;14.32;;;2.97;;
35530;SDS011;21637;53.352;-6.356;2023-12-28T13:09:07;11.63;;;2.75;;
35530;SDS011;21637;53.352;-6.356;2023-12-28T13:11:35;9.25;;;2.30;;
35530;SDS011;21637;53.352;-6.356;2023-12-28T13:14:01;15.05;;;2.55;;
35530;SDS011;21637;53.352;-6.356;2023-12-28T13:16:27;10.95;;;3.17;;
35530;SDS011;21637;53.352;-6.356;2023-12-28T13:18:53;10.85;;;2.35;;
35530;SDS011;21637;53.352;-6.356;2023-12-28T13:21:19;6.57;;;1.98;;
35530;SDS011;21637;53.352;-6.356;2023-12-28T13:23:44;9.25;;;2.60;;
35530;SDS011;21637;53.352;-6.356;2023-12-28T13:26:10;12.05;;;2.80;;
35530;SDS011;21637;53.352;-6.356;2023-12-28T13:28:36;16.20;;;2.90;;
35530;SDS011;21637;53.352;-6.356;2023-12-28T13:31:02;12.20;;;3.53;;
35530;SDS011;21637;53.352;-6.356;2023-12-28T13:33:27;12.60;;;3.20;;
35530;SDS011;21637;53.352;-6.356;2023-12-28T13:35:54;13.32;;;3.08;;
35530;SDS011;21637;53.352;-6.356;2023-12-28T13:38:20;15.80;;;3.78;;
35530;SDS011;21637;53.352;-6.356;2023-12-28T13:40:46;5.88;;;1.98;;
35530;SDS011;21637;53.352;-6.356;2023-12-28T13:43:12;13.32;;;2.47;;
35530;SDS011;21637;53.352;-6.356;2023-12-28T13:45:37;10.15;;;2.63;;
35530;SDS011;21637;53.352;-6.356;2023-12-28T13:48:03;10.50;;;2.10;;
35530;SDS011;21637;53.352;-6.356;2023-12-28T13:50:29;10.20;;;2.53;;
35530;SDS011;21637;53.352;-6.356;2023-12-28T13:52:56;8.93;;;1.80;;
35530;SDS011;21637;53.352;-6.356;2023-12-28T13:55:21;14.63;;;2.30;;
35530;SDS011;21637;53.352;-6.356;2023-12-28T13:57:47;9.55;;;2.10;;
35530;SDS011;21637;53.352;-6.356;2023-12-28T14:00:13;9.93;;;2.00;;
35530;SDS011;21637;53.352;-6.356;2023-12-28T14:02:39;15.85;;;2.50;;
35530;SDS011;21637;53.352;-6.356;2023-12-28T14:05:05;16.10;;;3.30;;
35530;SDS011;21637;53.352;-6.356;2023-12-28T14:07:31;11.65;;;2.47;;
35530;SDS011;21637;53.352;-6.356;2023-12-28T14:09:58;7.00;;;2.22;;
35530;SDS011;21637;53.352;-6.356;2023-12-28T14:12:23;13.35;;;2.75;;
35530;SDS011;21637;53.352;-6.356;2023-12-28T14:14:49;15.27;;;2.88;;
35530;SDS011;21637;53.352;-6.356;2023-12-28T14:17:15;8.13;;;2.38;;
35530;SDS011;21637;53.352;-6.356;2023-12-28T14:19:44;9.50;;;2.15;;
35530;SDS011;21637;53.352;-6.356;2023-12-28T14:22:13;10.90;;;2.85;;
35530;SDS011;21637;53.352;-6.356;2023-12-28T14:24:39;7.82;;;1.65;;
35530;SDS011;21637;53.352;-6.356;2023-12-28T14:27:05;9.85;;;2.65;;
35530;SDS011;21637;53.352;-6.356;2023-12-28T14:29:31;8.00;;;1.70;;
35530;SDS011;21637;53.352;-6.356;2023-12-28T14:31:57;8.57;;;1.98;;
35530;SDS011;21637;53.352;-6.356;2023-12-28T14:34:24;10.38;;;2.72;;